Takotna, Alaska
Current Conditions -  °F | °C
As of 8:20 AM on Thursday 30 Oct 2014 (Local Time) from PATL Reporting Station
Light Fog Light Fog  
Wind Chill: 10°   Ceiling: 200
Heat Index: 10°   Visibility: 0.5mi
Dew Point:   Wind: 0mph
Humidity: 92%   Direction: NA
Pressure: 29.79"   Gusts: NA
Location:  62.99°N, 156.09°W
Report Text: PATL 301620Z AUTO 00000KT 1/2SM BCFG VV002 M12/M13 A2979 RMK AO2 SLP119
Loading
Personal Weather Stations






























Interactive Weather Map
Tropical Storm Tracking
New forecast layout! Learn more

10-Day Weather Forecast

Advertisements
Track Severe Weather on mobile